Time;durP1;ratioP1;P1;durP2;ratioP2;P2;SDS_P1;SDS_P2;PMS_P1;PMS_P2;Temp;Humidity;BMP_temperature;BMP_pressure;BME280_temperature;BME280_humidity;BME280_pressure;Samples;Min_cycle;Max_cycle;Signal;HPM_P1;HPM_P2
2022/10/20 00:01:04;;;;;;;13.85;7.75;;;5.80;99.90;;;;;;5096498;28;20024;-76
2022/10/20 00:03:32;;;;;;;15.73;8.20;;;5.80;99.90;;;;;;5096269;28;20484;-76
2022/10/20 00:06:12;;;;;;;18.30;8.05;;;5.70;99.90;;;;;;5097131;28;20431;-76
2022/10/20 00:08:40;;;;;;;20.23;8.45;;;5.70;99.90;;;;;;5081989;28;20020;-76
2022/10/20 00:11:09;;;;;;;13.85;8.40;;;5.70;99.90;;;;;;5100430;28;20418;-76
2022/10/20 00:13:37;;;;;;;14.25;8.95;;;5.60;99.90;;;;;;5099997;28;20096;-76
2022/10/20 00:16:05;;;;;;;14.10;8.90;;;5.60;99.90;;;;;;5098952;28;20162;-76
2022/10/20 00:18:33;;;;;;;16.95;8.90;;;5.60;99.90;;;;;;5098659;28;20027;-75
2022/10/20 00:21:05;;;;;;;14.23;8.25;;;5.60;99.90;;;;;;5099965;28;20028;-76
2022/10/20 00:23:34;;;;;;;12.32;7.97;;;5.50;99.90;;;;;;5099795;28;20028;-75
2022/10/20 00:26:07;;;;;;;17.50;8.25;;;5.40;99.90;;;;;;5099610;28;20013;-76
2022/10/20 00:28:35;;;;;;;14.90;8.30;;;5.40;99.90;;;;;;5099539;28;20016;-76
2022/10/20 00:31:03;;;;;;;17.58;9.85;;;5.40;99.90;;;;;;5099512;28;20031;-76
2022/10/20 00:33:32;;;;;;;14.27;8.90;;;5.30;99.90;;;;;;5098565;28;20020;-76
2022/10/20 00:36:05;;;;;;;14.75;9.45;;;5.20;99.90;;;;;;5098354;28;20039;-76
2022/10/20 00:38:33;;;;;;;16.83;8.38;;;5.10;99.90;;;;;;5099687;28;20028;-76
2022/10/20 00:41:04;;;;;;;16.35;9.23;;;5.10;99.90;;;;;;5099613;28;20024;-76
2022/10/20 00:43:52;;;;;;;15.45;10.07;;;5.00;99.90;;;;;;5099359;28;20085;-76
2022/10/20 00:46:40;;;;;;;18.30;9.13;;;5.00;99.90;;;;;;5081510;28;20308;-76
2022/10/20 00:49:22;;;;;;;17.98;9.75;;;4.90;99.90;;;;;;5099438;28;20024;-76
2022/10/20 00:51:51;;;;;;;20.05;10.25;;;4.80;99.90;;;;;;5099024;28;20044;-75
2022/10/20 00:54:25;;;;;;;18.23;10.70;;;4.80;99.90;;;;;;5099187;28;20059;-75
2022/10/20 00:56:56;;;;;;;19.88;10.35;;;4.80;99.90;;;;;;5099003;28;20048;-76
2022/10/20 00:59:29;;;;;;;22.20;10.75;;;4.80;99.90;;;;;;5098971;28;20023;-76
2022/10/20 01:01:58;;;;;;;21.77;11.18;;;4.80;99.90;;;;;;5080902;28;20106;-75
2022/10/20 01:04:27;;;;;;;20.27;10.98;;;4.90;99.90;;;;;;5081044;28;20383;-75
2022/10/20 01:06:55;;;;;;;18.05;11.60;;;4.90;99.90;;;;;;5099112;28;20459;-75
2022/10/20 01:09:22;;;;;;;21.60;11.18;;;5.00;99.90;;;;;;5081320;28;20055;-76
2022/10/20 01:12:08;;;;;;;19.75;10.43;;;5.00;99.90;;;;;;5080751;28;20083;-75
2022/10/20 01:14:45;;;;;;;20.27;8.57;;;5.00;99.90;;;;;;5099094;28;20501;-76
2022/10/20 01:17:36;;;;;;;20.02;10.57;;;5.00;99.90;;;;;;5098540;28;20020;-75
2022/10/20 01:20:22;;;;;;;16.17;9.93;;;5.00;99.90;;;;;;5098559;28;20012;-75
2022/10/20 01:23:01;;;;;;;16.45;10.35;;;5.00;99.90;;;;;;5098608;28;20023;-75
2022/10/20 01:26:04;;;;;;;17.95;9.50;;;5.00;99.90;;;;;;5080434;28;20538;-75
2022/10/20 01:28:35;;;;;;;18.00;10.27;;;4.90;99.90;;;;;;5098631;28;20028;-75
2022/10/20 01:31:11;;;;;;;20.98;10.60;;;4.80;99.90;;;;;;5098610;28;20020;-75
2022/10/20 01:34:16;;;;;;;20.38;10.20;;;4.80;99.90;;;;;;5080423;28;20060;-76
2022/10/20 01:37:00;;;;;;;20.73;10.32;;;4.90;99.90;;;;;;5080264;28;20032;-76
2022/10/20 01:39:40;;;;;;;17.02;10.65;;;4.90;99.90;;;;;;5080253;28;20445;-76
2022/10/20 01:42:23;;;;;;;17.98;10.32;;;5.00;99.90;;;;;;5080054;28;20032;-75
2022/10/20 01:44:54;;;;;;;20.73;11.18;;;5.00;99.90;;;;;;5098559;28;20339;-75
2022/10/20 01:47:25;;;;;;;19.35;10.02;;;5.00;99.90;;;;;;5098061;28;20020;-75
2022/10/20 01:49:52;;;;;;;18.10;10.65;;;4.90;99.90;;;;;;5079862;28;20027;-76
2022/10/20 01:52:22;;;;;;;19.27;10.55;;;4.90;99.90;;;;;;5076600;28;20044;-75
2022/10/20 01:54:50;;;;;;;19.67;9.43;;;4.90;99.90;;;;;;5077937;28;20082;-75
2022/10/20 01:57:48;;;;;;;19.55;9.80;;;4.90;99.90;;;;;;5077569;28;20051;-75
2022/10/20 02:00:16;;;;;;;24.23;11.13;;;4.80;99.90;;;;;;5093342;28;20035;-75
2022/10/20 02:03:10;;;;;;;17.35;10.32;;;4.80;99.90;;;;;;5076482;28;20035;-75
2022/10/20 02:05:59;;;;;;;20.77;9.60;;;4.80;99.90;;;;;;5076363;28;20021;-75
2022/10/20 02:08:50;;;;;;;20.85;10.95;;;4.80;99.90;;;;;;5077738;28;20021;-75
2022/10/20 02:11:42;;;;;;;19.38;10.57;;;4.80;99.90;;;;;;5077222;28;20052;-75
2022/10/20 02:14:13;;;;;;;21.23;10.63;;;4.80;99.90;;;;;;5077413;28;20021;-76
2022/10/20 02:16:47;;;;;;;19.98;10.23;;;4.80;99.90;;;;;;5077160;28;20047;-76
2022/10/20 02:19:16;;;;;;;24.20;12.88;;;4.80;99.90;;;;;;5077225;28;20116;-75
2022/10/20 02:21:45;;;;;;;27.90;11.50;;;4.80;99.90;;;;;;5077051;28;20025;-75
2022/10/20 02:24:15;;;;;;;20.73;11.20;;;4.70;99.90;;;;;;5076425;28;20039;-75
2022/10/20 02:26:43;;;;;;;18.20;10.18;;;4.70;99.90;;;;;;5077039;28;20062;-75
2022/10/20 02:29:16;;;;;;;19.67;10.23;;;4.70;99.90;;;;;;5076906;28;20353;-76
2022/10/20 02:31:45;;;;;;;18.52;9.80;;;4.60;99.90;;;;;;5077201;28;20439;-75
2022/10/20 02:34:14;;;;;;;18.95;10.48;;;4.60;99.90;;;;;;5077612;28;20335;-75
2022/10/20 02:36:43;;;;;;;20.92;11.38;;;4.60;99.90;;;;;;5076864;28;20024;-75
2022/10/20 02:39:11;;;;;;;21.63;10.43;;;4.50;99.90;;;;;;5075750;28;20025;-76
2022/10/20 02:41:38;;;;;;;18.33;10.10;;;4.50;99.90;;;;;;5077125;28;20028;-75
2022/10/20 02:44:06;;;;;;;24.15;10.70;;;4.40;99.90;;;;;;5076839;28;20029;-76
2022/10/20 02:46:33;;;;;;;21.05;11.68;;;4.30;99.90;;;;;;5077355;28;20017;-75
2022/10/20 02:49:01;;;;;;;20.63;10.85;;;4.30;99.90;;;;;;5077050;28;20027;-76
2022/10/20 02:51:28;;;;;;;27.17;10.48;;;4.20;99.90;;;;;;5075449;28;20044;-76
2022/10/20 02:53:56;;;;;;;20.15;11.20;;;4.20;99.90;;;;;;5076718;28;20032;-76
2022/10/20 02:56:23;;;;;;;18.63;9.80;;;4.10;99.90;;;;;;5076874;28;20054;-76
2022/10/20 02:58:50;;;;;;;20.88;10.40;;;4.10;99.90;;;;;;5076554;28;20024;-76
2022/10/20 03:01:18;;;;;;;23.15;10.73;;;4.00;99.90;;;;;;5076276;28;20024;-75
2022/10/20 03:03:45;;;;;;;17.63;10.13;;;4.00;99.90;;;;;;5076524;28;20060;-76
2022/10/20 03:06:15;;;;;;;22.50;10.63;;;3.90;99.90;;;;;;5076773;28;20020;-76
2022/10/20 03:08:43;;;;;;;21.55;9.70;;;3.90;99.90;;;;;;5076754;28;20106;-76
2022/10/20 03:11:10;;;;;;;20.33;10.48;;;3.80;99.90;;;;;;5092214;28;20020;-76
2022/10/20 03:13:37;;;;;;;25.00;11.20;;;3.70;99.90;;;;;;5075387;28;20020;-76
2022/10/20 03:16:05;;;;;;;19.25;10.18;;;3.70;99.90;;;;;;5076490;28;20086;-76
2022/10/20 03:18:33;;;;;;;22.10;9.85;;;3.60;99.90;;;;;;5075527;28;20059;-76
2022/10/20 03:21:00;;;;;;;20.65;10.05;;;3.60;99.90;;;;;;5075246;28;20024;-76
2022/10/20 03:23:27;;;;;;;17.48;10.88;;;3.60;99.90;;;;;;5076341;28;20021;-76
2022/10/20 03:26:05;;;;;;;23.38;10.75;;;3.50;99.90;;;;;;5075295;28;20048;-75
2022/10/20 03:28:33;;;;;;;23.60;11.93;;;3.50;99.90;;;;;;5075318;28;20031;-76
2022/10/20 03:31:01;;;;;;;21.50;10.88;;;3.50;99.90;;;;;;5076560;28;20012;-76
2022/10/20 03:33:28;;;;;;;24.25;10.13;;;3.50;99.90;;;;;;5075212;28;20029;-76
2022/10/20 03:35:55;;;;;;;22.98;10.70;;;3.40;99.90;;;;;;5076059;28;20337;-75
2022/10/20 03:38:22;;;;;;;20.90;11.13;;;3.40;99.90;;;;;;5075260;28;20036;-76
2022/10/20 03:40:50;;;;;;;22.73;10.98;;;3.40;99.90;;;;;;5076971;28;20028;-76
2022/10/20 03:43:17;;;;;;;23.25;10.05;;;3.30;99.90;;;;;;5080303;28;20435;-76
2022/10/20 03:45:44;;;;;;;18.10;10.65;;;3.30;99.90;;;;;;5079053;28;20052;-76
2022/10/20 03:48:12;;;;;;;20.27;10.77;;;3.30;99.90;;;;;;5079168;28;20020;-75
2022/10/20 03:50:41;;;;;;;25.40;10.93;;;3.30;99.90;;;;;;5080012;28;20024;-76
2022/10/20 03:53:13;;;;;;;21.05;10.45;;;3.20;99.90;;;;;;5099988;28;20043;-76
2022/10/20 03:55:40;;;;;;;23.90;10.60;;;3.20;99.90;;;;;;5100427;28;20438;-76
2022/10/20 03:58:07;;;;;;;25.48;11.48;;;3.20;99.90;;;;;;5100532;28;20095;-76
2022/10/20 04:00:35;;;;;;;28.45;11.10;;;3.20;99.90;;;;;;5099734;28;20108;-75
2022/10/20 04:03:03;;;;;;;26.30;11.10;;;3.10;99.90;;;;;;5081970;28;20039;-76
2022/10/20 04:05:31;;;;;;;23.60;10.95;;;3.20;99.90;;;;;;5099192;28;20028;-76
2022/10/20 04:07:58;;;;;;;33.25;12.38;;;3.20;99.90;;;;;;5100397;28;20125;-76
2022/10/20 04:10:25;;;;;;;24.08;10.52;;;3.20;99.90;;;;;;5100165;28;20103;-75
2022/10/20 04:12:57;;;;;;;20.73;9.88;;;3.10;99.90;;;;;;5081741;28;20420;-76
2022/10/20 04:15:24;;;;;;;26.52;8.90;;;3.10;99.90;;;;;;5098744;28;20028;-76
2022/10/20 04:17:51;;;;;;;17.92;9.20;;;3.10;99.90;;;;;;5081790;28;20024;-76
2022/10/20 04:20:19;;;;;;;33.80;10.75;;;3.00;99.90;;;;;;5099769;28;20106;-76
2022/10/20 04:22:46;;;;;;;19.75;8.57;;;3.00;99.90;;;;;;5100077;28;20016;-76
2022/10/20 04:25:14;;;;;;;19.95;9.65;;;3.00;99.90;;;;;;5098568;28;20111;-76
2022/10/20 04:27:41;;;;;;;22.38;9.73;;;3.00;99.90;;;;;;5081631;28;20103;-76
2022/10/20 04:30:09;;;;;;;18.63;9.30;;;2.90;99.90;;;;;;5081505;28;20334;-76
2022/10/20 04:32:37;;;;;;;19.73;9.35;;;2.90;99.90;;;;;;5098611;28;20020;-76
2022/10/20 04:35:05;;;;;;;18.90;10.82;;;2.90;99.90;;;;;;5081493;28;20115;-76
2022/10/20 04:37:32;;;;;;;18.15;8.70;;;2.90;99.90;;;;;;5081462;28;20036;-76
2022/10/20 04:40:00;;;;;;;23.10;9.13;;;2.80;99.90;;;;;;5099647;28;20055;-76
2022/10/20 04:42:27;;;;;;;18.63;8.45;;;2.80;99.90;;;;;;5099595;28;20451;-76
2022/10/20 04:44:54;;;;;;;17.25;8.65;;;2.80;99.90;;;;;;5099490;28;20031;-76
2022/10/20 04:47:22;;;;;;;21.85;9.55;;;2.80;99.90;;;;;;5099673;28;20289;-76
2022/10/20 04:49:49;;;;;;;16.38;8.55;;;2.80;99.90;;;;;;5099445;28;20032;-76
2022/10/20 04:52:19;;;;;;;17.52;8.75;;;2.80;99.90;;;;;;5098116;28;20065;-76
2022/10/20 04:54:47;;;;;;;16.00;8.73;;;2.80;99.90;;;;;;5099616;28;20440;-76
2022/10/20 04:57:14;;;;;;;18.27;8.68;;;2.70;99.90;;;;;;5081186;28;20411;-76
2022/10/20 04:59:42;;;;;;;29.67;9.57;;;2.70;99.90;;;;;;5098930;28;20068;-76
2022/10/20 05:02:10;;;;;;;17.23;8.25;;;2.60;99.90;;;;;;5099154;28;20042;-76
2022/10/20 05:04:37;;;;;;;21.25;10.10;;;2.70;99.90;;;;;;5098909;28;20293;-76
2022/10/20 05:07:05;;;;;;;19.25;9.65;;;2.60;99.90;;;;;;5098983;28;20379;-76
2022/10/20 05:09:33;;;;;;;25.50;11.57;;;2.70;99.90;;;;;;5099050;28;20020;-76
2022/10/20 05:12:00;;;;;;;25.65;10.43;;;2.60;99.90;;;;;;5098785;28;20016;-76
2022/10/20 05:14:27;;;;;;;23.95;10.27;;;2.60;99.90;;;;;;5098686;28;20027;-76
2022/10/20 05:16:55;;;;;;;18.50;9.30;;;2.60;99.90;;;;;;5080909;28;20020;-77
2022/10/20 05:19:22;;;;;;;17.88;9.35;;;2.60;99.90;;;;;;5081445;28;20028;-77
2022/10/20 05:21:50;;;;;;;17.50;8.65;;;2.60;99.90;;;;;;5098780;28;20103;-77
2022/10/20 05:24:18;;;;;;;18.60;9.50;;;2.60;99.90;;;;;;5098558;28;20362;-78
2022/10/20 05:26:45;;;;;;;19.80;9.13;;;2.60;99.90;;;;;;5098488;28;20316;-77
2022/10/20 05:29:13;;;;;;;17.63;8.88;;;2.50;99.90;;;;;;5098357;28;20031;-77
2022/10/20 05:31:42;;;;;;;21.00;9.05;;;2.50;99.90;;;;;;5098656;28;20016;-77
2022/10/20 05:34:10;;;;;;;16.98;8.93;;;2.50;99.90;;;;;;5098550;28;20351;-77
2022/10/20 05:36:38;;;;;;;22.08;8.82;;;2.50;99.90;;;;;;5098405;28;20030;-80
2022/10/20 05:39:05;;;;;;;20.75;8.95;;;2.50;99.90;;;;;;5080286;28;20020;-78
2022/10/20 05:41:33;;;;;;;17.83;8.98;;;2.50;99.90;;;;;;5098332;28;20529;-80
2022/10/20 05:44:04;;;;;;;22.08;8.57;;;2.50;99.90;;;;;;5080159;28;20035;-80
2022/10/20 05:46:34;;;;;;;23.85;9.63;;;2.50;99.90;;;;;;5098112;28;20156;-84
2022/10/20 05:49:02;;;;;;;19.65;8.00;;;2.50;99.90;;;;;;5080095;28;20027;-83
2022/10/20 05:51:36;;;;;;;15.20;7.72;;;2.50;99.90;;;;;;5076412;28;20097;-81
2022/10/20 05:54:03;;;;;;;22.08;8.50;;;2.50;99.90;;;;;;5076806;28;20035;-82
2022/10/20 05:56:33;;;;;;;21.23;8.48;;;2.40;99.90;;;;;;5077677;28;20431;-85
2022/10/20 05:59:00;;;;;;;19.30;9.05;;;2.40;99.90;;;;;;5076521;28;20355;-79
2022/10/20 06:01:48;;;;;;;22.40;8.10;;;2.40;99.90;;;;;;5077773;28;20027;-78
2022/10/20 06:04:18;;;;;;;19.05;8.75;;;2.40;99.90;;;;;;5093271;28;20032;-78
2022/10/20 06:06:47;;;;;;;17.63;8.85;;;2.40;99.90;;;;;;5077386;28;20021;-78
2022/10/20 06:09:16;;;;;;;17.70;9.05;;;2.50;99.90;;;;;;5077691;28;20297;-78
2022/10/20 06:11:44;;;;;;;18.00;8.48;;;2.50;99.90;;;;;;5077662;28;20146;-78
2022/10/20 06:14:11;;;;;;;22.23;9.52;;;2.50;99.90;;;;;;5076472;28;20450;-78
2022/10/20 06:16:38;;;;;;;24.15;9.02;;;2.50;99.90;;;;;;5076240;28;20028;-79
2022/10/20 06:19:06;;;;;;;18.92;9.93;;;2.60;99.90;;;;;;5076216;28;20020;-82
2022/10/20 06:21:36;;;;;;;20.08;9.80;;;2.60;99.90;;;;;;5077453;28;20055;-81
2022/10/20 06:24:05;;;;;;;21.98;10.77;;;2.60;99.90;;;;;;5077225;28;20032;-80
2022/10/20 06:26:37;;;;;;;19.38;9.15;;;2.70;99.90;;;;;;5075988;28;20435;-79
2022/10/20 06:29:13;;;;;;;21.80;9.73;;;2.70;99.90;;;;;;5092775;28;20024;-81
2022/10/20 06:31:42;;;;;;;18.67;9.60;;;2.80;99.90;;;;;;5076967;28;20031;-81
2022/10/20 06:34:19;;;;;;;21.27;10.05;;;2.90;99.90;;;;;;5076038;28;20028;-79
2022/10/20 06:36:48;;;;;;;22.88;10.73;;;3.00;99.90;;;;;;5077249;28;20428;-79
2022/10/20 06:39:20;;;;;;;23.52;9.68;;;3.00;99.90;;;;;;5075848;28;20025;-78
2022/10/20 06:41:49;;;;;;;16.95;8.70;;;3.10;99.90;;;;;;5092710;28;20025;-75
2022/10/20 06:44:21;;;;;;;17.05;8.55;;;3.20;99.90;;;;;;5092851;28;20327;-80
2022/10/20 06:46:51;;;;;;;14.25;8.18;;;3.20;99.90;;;;;;5075687;28;20021;-82
2022/10/20 06:49:19;;;;;;;18.08;8.70;;;3.30;99.90;;;;;;5076992;28;20033;-82
2022/10/20 06:51:46;;;;;;;16.77;8.57;;;3.30;99.90;;;;;;5084645;28;20114;-82
2022/10/20 06:54:14;;;;;;;20.13;10.05;;;3.40;99.90;;;;;;5079078;28;20024;-82
2022/10/20 06:56:41;;;;;;;26.38;8.88;;;3.50;99.90;;;;;;5096834;28;20027;-82
2022/10/20 06:59:08;;;;;;;18.02;9.18;;;3.60;99.90;;;;;;5097155;28;20031;-85
2022/10/20 07:01:37;;;;;;;15.75;8.75;;;3.60;99.90;;;;;;5078931;28;20024;-80
2022/10/20 07:04:14;;;;;;;21.35;8.00;;;3.70;99.90;;;;;;5095679;28;20040;-80
2022/10/20 07:06:43;;;;;;;15.50;8.13;;;3.80;99.90;;;;;;5096768;28;20020;-80
2022/10/20 07:09:17;;;;;;;15.57;7.55;;;3.90;99.90;;;;;;5078888;28;20421;-79
2022/10/20 07:11:51;;;;;;;18.63;8.35;;;4.00;99.90;;;;;;5078742;28;20028;-80
2022/10/20 07:14:18;;;;;;;17.25;8.75;;;4.00;99.90;;;;;;5078686;28;20024;-80
2022/10/20 07:16:46;;;;;;;16.88;9.10;;;4.10;99.90;;;;;;5078187;28;20039;-80
2022/10/20 07:19:13;;;;;;;20.20;9.40;;;4.20;99.90;;;;;;5096798;28;20028;-80
2022/10/20 07:21:40;;;;;;;13.30;8.15;;;4.30;99.90;;;;;;5096885;28;20058;-79
2022/10/20 07:24:09;;;;;;;17.27;9.00;;;4.40;99.90;;;;;;5096521;28;20024;-80
2022/10/20 07:26:39;;;;;;;15.30;8.07;;;4.50;99.90;;;;;;5096564;28;20013;-77
2022/10/20 07:29:06;;;;;;;15.57;8.68;;;4.60;99.90;;;;;;5096685;28;20017;-78
2022/10/20 07:31:37;;;;;;;17.70;8.65;;;4.80;99.90;;;;;;5096498;28;20026;-77
2022/10/20 07:34:06;;;;;;;14.98;8.23;;;4.90;99.90;;;;;;5096537;28;20028;-79
2022/10/20 07:36:35;;;;;;;14.93;8.68;;;5.00;99.90;;;;;;5096814;28;20052;-77
2022/10/20 07:39:05;;;;;;;18.98;9.75;;;5.10;99.90;;;;;;5096657;28;20063;-77
2022/10/20 07:41:33;;;;;;;11.48;7.97;;;5.20;99.90;;;;;;5095366;28;20463;-77
2022/10/20 07:44:01;;;;;;;15.13;8.10;;;5.30;99.90;;;;;;5096310;28;20020;-77
2022/10/20 07:46:29;;;;;;;14.05;7.95;;;5.50;99.90;;;;;;5096417;28;20055;-78
2022/10/20 07:48:56;;;;;;;20.77;9.93;;;5.60;99.90;;;;;;5096564;28;20020;-77
2022/10/20 07:51:27;;;;;;;16.90;8.68;;;5.70;99.90;;;;;;5096094;28;20432;-82
2022/10/20 07:54:05;;;;;;;15.30;7.75;;;5.90;99.90;;;;;;5096350;28;20028;-78
2022/10/20 07:56:35;;;;;;;10.93;6.88;;;6.00;99.90;;;;;;5077860;28;20028;-78
2022/10/20 07:59:04;;;;;;;12.00;6.95;;;6.10;99.90;;;;;;5096700;28;20024;-75
2022/10/20 08:01:33;;;;;;;11.55;6.57;;;6.30;99.90;;;;;;5096277;28;20028;-76
2022/10/20 08:04:01;;;;;;;13.48;6.40;;;6.50;99.90;;;;;;5096223;28;20035;-76
2022/10/20 08:06:28;;;;;;;12.50;6.22;;;6.70;99.90;;;;;;5078262;28;20483;-76
2022/10/20 08:08:55;;;;;;;13.07;5.72;;;6.90;99.90;;;;;;5095616;28;20096;-77
2022/10/20 08:11:23;;;;;;;12.40;6.18;;;7.10;99.90;;;;;;5078202;28;20320;-77
2022/10/20 08:13:50;;;;;;;9.93;5.78;;;7.30;99.90;;;;;;5078164;28;20025;-77
2022/10/20 08:16:18;;;;;;;9.73;5.32;;;7.50;99.90;;;;;;5096675;28;20297;-77
2022/10/20 08:18:46;;;;;;;14.13;5.25;;;7.60;99.90;;;;;;5095179;28;20027;-77
2022/10/20 08:21:16;;;;;;;7.85;5.00;;;7.80;99.90;;;;;;5096056;28;20420;-77
2022/10/20 08:23:46;;;;;;;10.13;4.97;;;8.00;99.90;;;;;;5095996;28;20420;-77
2022/10/20 08:26:23;;;;;;;10.20;5.35;;;8.10;99.90;;;;;;5077579;28;20026;-76
2022/10/20 08:28:52;;;;;;;10.55;4.88;;;8.30;99.90;;;;;;5097625;28;20024;-80
2022/10/20 08:31:20;;;;;;;7.60;4.65;;;8.50;99.90;;;;;;5098522;28;20023;-77
2022/10/20 08:33:47;;;;;;;8.73;4.93;;;8.60;99.90;;;;;;5098806;28;20416;-77
2022/10/20 08:36:15;;;;;;;8.10;4.50;;;8.80;99.90;;;;;;5099786;28;20032;-77
2022/10/20 08:38:43;;;;;;;8.00;4.53;;;8.90;99.90;;;;;;5080249;28;20035;-77
2022/10/20 08:41:22;;;;;;;10.35;5.18;;;9.10;99.90;;;;;;5099441;28;20177;-77
2022/10/20 08:43:51;;;;;;;8.55;5.25;;;9.20;99.90;;;;;;5099417;28;20028;-77
2022/10/20 08:46:25;;;;;;;8.73;5.50;;;9.30;99.90;;;;;;5099385;28;20024;-77
2022/10/20 08:48:53;;;;;;;9.75;4.68;;;9.50;99.90;;;;;;5099446;28;20066;-77
2022/10/20 08:51:26;;;;;;;7.65;4.75;;;9.60;99.90;;;;;;5094648;28;20037;-78
2022/10/20 08:53:58;;;;;;;9.82;4.72;;;9.70;99.90;;;;;;5077915;28;20032;-78
2022/10/20 08:56:29;;;;;;;6.70;4.82;;;9.80;99.90;;;;;;5094648;28;20324;-79
2022/10/20 08:58:56;;;;;;;6.22;4.45;;;10.00;99.90;;;;;;5077821;28;20360;-78
2022/10/20 09:01:28;;;;;;;11.30;4.65;;;10.00;99.90;;;;;;5077880;28;20036;-78
2022/10/20 09:04:13;;;;;;;6.97;4.43;;;10.10;99.90;;;;;;5078677;28;20036;-78
2022/10/20 09:06:42;;;;;;;11.20;4.88;;;10.20;99.90;;;;;;5094576;28;20048;-78
2022/10/20 09:09:17;;;;;;;12.40;4.80;;;10.30;99.90;;;;;;5079133;28;20030;-77
2022/10/20 09:11:45;;;;;;;6.18;4.28;;;10.40;99.90;;;;;;5079347;28;20017;-77
2022/10/20 09:14:15;;;;;;;9.52;4.47;;;10.50;99.90;;;;;;5094273;28;20024;-77
2022/10/20 09:16:45;;;;;;;6.65;4.55;;;10.50;99.90;;;;;;5078494;28;20029;-77
2022/10/20 09:19:22;;;;;;;8.32;4.68;;;10.60;99.90;;;;;;5078582;28;20024;-77
2022/10/20 09:21:56;;;;;;;9.07;4.80;;;10.70;99.90;;;;;;5077248;28;20098;-77
2022/10/20 09:24:28;;;;;;;9.77;4.20;;;10.80;99.90;;;;;;5078316;28;20029;-79
2022/10/20 09:27:05;;;;;;;14.77;4.55;;;10.90;99.90;;;;;;5077592;28;20031;-77
2022/10/20 09:29:37;;;;;;;6.00;3.85;;;10.90;99.90;;;;;;5078192;28;20013;-77
2022/10/20 09:32:18;;;;;;;11.68;4.30;;;11.00;99.90;;;;;;5077115;28;20028;-77
2022/10/20 09:34:45;;;;;;;7.40;4.60;;;11.10;99.90;;;;;;5077603;28;20032;-77
2022/10/20 09:37:18;;;;;;;8.23;3.97;;;11.20;99.90;;;;;;5078494;28;20017;-78
2022/10/20 09:39:56;;;;;;;8.15;4.30;;;11.30;99.90;;;;;;5077835;28;20027;-79
2022/10/20 09:42:35;;;;;;;7.65;3.92;;;11.40;99.90;;;;;;5077390;28;20112;-84
2022/10/20 09:45:12;;;;;;;8.55;4.07;;;11.50;99.90;;;;;;5078117;28;20013;-79
2022/10/20 09:47:45;;;;;;;6.63;3.75;;;11.60;99.90;;;;;;5093883;28;20432;-83
2022/10/20 09:50:30;;;;;;;8.02;4.00;;;11.70;99.90;;;;;;5078434;28;20024;-82
2022/10/20 09:53:02;;;;;;;5.18;3.50;;;11.70;99.90;;;;;;5096040;28;20040;-80
2022/10/20 09:55:41;;;;;;;9.10;5.13;;;11.80;99.90;;;;;;5098177;28;20323;-80
2022/10/20 09:58:23;;;;;;;7.47;3.75;;;11.80;99.90;;;;;;5098060;28;20024;-82
2022/10/20 10:01:12;;;;;;;7.47;3.75;;;11.90;99.90;;;;;;5096754;28;20115;-75
2022/10/20 10:03:43;;;;;;;6.88;3.72;;;12.00;99.90;;;;;;5096611;28;20069;-83
2022/10/20 10:06:28;;;;;;;5.35;3.80;;;12.20;99.90;;;;;;5098054;28;20027;-82
2022/10/20 10:08:58;;;;;;;7.95;4.03;;;12.30;99.90;;;;;;5098544;28;20016;-81
2022/10/20 10:11:33;;;;;;;9.55;4.20;;;12.50;99.90;;;;;;5097961;28;20107;-83
2022/10/20 10:14:02;;;;;;;7.78;5.03;;;12.60;99.90;;;;;;5096476;28;20024;-82
2022/10/20 10:16:41;;;;;;;10.35;3.70;;;12.70;99.90;;;;;;5079883;28;20039;-86
2022/10/20 10:19:22;;;;;;;6.35;3.60;;;12.80;99.90;;;;;;5097665;28;20027;-77
2022/10/20 10:21:58;;;;;;;8.93;4.03;;;12.80;99.90;;;;;;5097414;28;20482;-82
2022/10/20 10:24:39;;;;;;;6.93;3.47;;;12.90;99.90;;;;;;5096461;28;20030;-81
2022/10/20 10:27:19;;;;;;;8.73;3.55;;;13.00;99.90;;;;;;5096784;28;20024;-86
2022/10/20 10:29:46;;;;;;;7.03;3.33;;;13.00;99.90;;;;;;5080137;28;20027;-84
2022/10/20 10:32:26;;;;;;;6.88;3.67;;;13.10;99.90;;;;;;5079369;28;20100;-81
2022/10/20 10:35:12;;;;;;;7.13;3.28;;;13.10;99.90;;;;;;5096108;28;20020;-80
2022/10/20 10:37:41;;;;;;;;;;;13.10;99.90;;;;;;5097836;28;20434;-80
2022/10/20 10:40:20;;;;;;;7.88;3.40;;;13.10;99.90;;;;;;5079281;28;20219;-80
2022/10/20 10:43:06;;;;;;;5.20;3.55;;;13.30;99.90;;;;;;5096052;28;20391;-78
2022/10/20 10:45:34;;;;;;;9.82;3.33;;;13.30;99.90;;;;;;5097091;28;20020;-78
2022/10/20 10:48:31;;;;;;;4.95;3.50;;;13.40;99.90;;;;;;5079123;28;20028;-78
2022/10/20 10:51:01;;;;;;;5.00;3.30;;;13.50;99.90;;;;;;5095988;28;20483;-77
2022/10/20 10:53:44;;;;;;;8.80;3.72;;;13.60;99.90;;;;;;5097104;28;20036;-77
2022/10/20 10:56:33;;;;;;;6.55;3.50;;;13.60;99.90;;;;;;5097144;28;20024;-77
2022/10/20 10:59:12;;;;;;;6.97;2.90;;;13.70;99.90;;;;;;5078869;28;20024;-77
2022/10/20 11:01:50;;;;;;;5.28;3.15;;;13.70;99.90;;;;;;5097218;28;20035;-77
2022/10/20 11:04:43;;;;;;;6.30;3.08;;;13.70;99.90;;;;;;5078775;28;20047;-77
2022/10/20 11:07:28;;;;;;;4.40;3.17;;;13.80;99.90;;;;;;5096757;28;20099;-77
2022/10/20 11:10:15;;;;;;;6.88;3.15;;;13.80;99.90;;;;;;5096742;28;20371;-77
2022/10/20 11:13:12;;;;;;;6.38;2.78;;;13.80;99.90;;;;;;5096847;28;20123;-77
2022/10/20 11:15:48;;;;;;;9.75;3.65;;;14.00;99.90;;;;;;5096660;28;20027;-77
2022/10/20 11:18:28;;;;;;;6.85;2.65;;;14.20;99.90;;;;;;5097198;28;20024;-77
2022/10/20 11:21:25;;;;;;;6.28;2.78;;;14.30;99.90;;;;;;5096893;28;20028;-78
2022/10/20 11:24:14;;;;;;;4.57;2.67;;;14.40;99.90;;;;;;5096650;28;20020;-78
2022/10/20 11:26:53;;;;;;;4.95;2.40;;;14.50;99.90;;;;;;5096868;28;20016;-77
2022/10/20 11:29:37;;;;;;;4.60;2.78;;;14.60;99.90;;;;;;5096468;28;20391;-77
2022/10/20 11:32:36;;;;;;;5.53;2.47;;;14.70;99.90;;;;;;5095852;28;20370;-77
2022/10/20 11:35:25;;;;;;;3.08;2.20;;;14.80;99.90;;;;;;5078532;28;20408;-77
2022/10/20 11:38:16;;;;;;;3.72;2.55;;;14.90;99.90;;;;;;5096737;28;20316;-77
2022/10/20 11:40:59;;;;;;;4.10;2.45;;;15.00;99.90;;;;;;5078454;28;20035;-77
2022/10/20 11:43:34;;;;;;;6.13;3.67;;;15.20;99.90;;;;;;5096752;28;20024;-77
2022/10/20 11:46:14;;;;;;;10.88;2.40;;;15.30;99.90;;;;;;5078463;28;20361;-77
2022/10/20 11:48:44;;;;;;;8.65;3.25;;;15.30;99.90;;;;;;5095779;28;20029;-76
2022/10/20 11:51:29;;;;;;;7.03;2.15;;;15.30;99.90;;;;;;5096763;28;20670;-80
2022/10/20 11:54:13;;;;;;;5.75;3.13;;;15.30;99.90;;;;;;5096675;28;20035;-79
2022/10/20 11:56:57;;;;;;;4.05;2.20;;;15.30;99.90;;;;;;5096299;28;20031;-80
2022/10/20 11:59:39;;;;;;;6.25;2.58;;;15.30;99.90;;;;;;5096490;28;20024;-83
2022/10/20 12:02:23;;;;;;;3.10;2.15;;;15.30;99.90;;;;;;5080009;28;20024;-80
2022/10/20 12:05:06;;;;;;;6.45;2.72;;;15.30;99.90;;;;;;5082499;28;20039;-81
2022/10/20 12:08:06;;;;;;;5.15;2.38;;;15.30;99.90;;;;;;5099692;28;20433;-79
2022/10/20 12:10:43;;;;;;;6.70;2.55;;;15.30;99.90;;;;;;5082042;28;20028;-81
2022/10/20 12:13:38;;;;;;;7.00;2.47;;;15.20;99.90;;;;;;5099191;28;20035;-82
2022/10/20 12:16:06;;;;;;;4.57;2.80;;;15.30;99.90;;;;;;5081908;28;20020;-80
2022/10/20 12:18:35;;;;;;;8.15;2.70;;;15.30;99.90;;;;;;5100157;28;20319;-79
2022/10/20 12:21:06;;;;;;;5.13;2.90;;;15.30;99.90;;;;;;5081451;28;20031;-79
2022/10/20 12:23:44;;;;;;;5.32;2.75;;;15.30;99.90;;;;;;5081714;28;20111;-77
2022/10/20 12:26:29;;;;;;;3.88;2.47;;;15.40;99.90;;;;;;5100047;28;20040;-77
2022/10/20 12:28:57;;;;;;;4.97;2.17;;;15.40;99.90;;;;;;5099971;28;20316;-78
2022/10/20 12:31:45;;;;;;;6.13;2.30;;;15.60;99.80;;;;;;5098641;28;20441;-75
2022/10/20 12:34:24;;;;;;;5.30;2.88;;;15.80;99.50;;;;;;5099544;28;20046;-74
2022/10/20 12:37:27;;;;;;;4.70;2.67;;;15.90;99.30;;;;;;5099715;28;20016;-74
2022/10/20 12:39:59;;;;;;;5.03;3.10;;;15.90;99.10;;;;;;5099424;28;20056;-76
2022/10/20 12:42:32;;;;;;;5.18;2.30;;;16.00;98.50;;;;;;5099639;28;20100;-74
2022/10/20 12:45:23;;;;;;;4.22;2.88;;;16.10;98.20;;;;;;5099287;28;20028;-77
2022/10/20 12:48:00;;;;;;;5.35;2.90;;;16.00;98.40;;;;;;5099494;28;20012;-75
2022/10/20 12:50:37;;;;;;;6.82;2.55;;;15.90;98.60;;;;;;5099287;28;20020;-79
2022/10/20 12:53:17;;;;;;;6.60;2.83;;;15.80;98.80;;;;;;5098994;28;20032;-76
2022/10/20 12:56:10;;;;;;;6.25;2.55;;;15.80;98.90;;;;;;5099406;28;20016;-75
2022/10/20 12:58:59;;;;;;;5.80;2.72;;;15.70;99.30;;;;;;5099504;28;20047;-75
2022/10/20 13:01:27;;;;;;;10.00;3.50;;;15.70;99.00;;;;;;5082949;28;20035;-76
2022/10/20 13:03:55;;;;;;;7.03;2.60;;;15.60;99.30;;;;;;5099512;28;20404;-75
2022/10/20 13:06:26;;;;;;;6.93;3.25;;;15.50;99.50;;;;;;5080943;28;20028;-74
2022/10/20 13:09:06;;;;;;;6.03;4.28;;;15.50;99.90;;;;;;5099370;28;20020;-74
2022/10/20 13:11:37;;;;;;;5.78;3.50;;;15.40;99.90;;;;;;5080912;28;20020;-75
2022/10/20 13:14:24;;;;;;;4.93;3.10;;;15.30;99.90;;;;;;5098014;28;20031;-75
2022/10/20 13:17:12;;;;;;;5.22;3.00;;;15.30;99.80;;;;;;5097864;28;20419;-74